createdAt,value
2022-11-13T00:02:50.914Z,13.55
2022-11-13T00:08:10.943Z,12.25
2022-11-13T00:13:32.309Z,11.25
2022-11-13T00:18:52.733Z,12.43
2022-11-13T00:24:12.740Z,12.95
2022-11-13T00:29:33.046Z,12.07
2022-11-13T00:34:53.186Z,11.85
2022-11-13T00:40:13.580Z,11.45
2022-11-13T00:45:33.795Z,13.02
2022-11-13T00:50:54.252Z,12.02
2022-11-13T00:56:14.561Z,11.23
2022-11-13T01:01:34.813Z,10.38
2022-11-13T01:06:54.677Z,11.02
2022-11-13T01:12:14.653Z,12.15
2022-11-13T01:17:35.177Z,12.45
2022-11-13T01:22:55.179Z,12.63
2022-11-13T01:28:15.344Z,13.15
2022-11-13T01:33:35.944Z,12.73
2022-11-13T01:38:56.344Z,11.20
2022-11-13T01:44:18.791Z,11.80
2022-11-13T01:49:41.492Z,11.05
2022-11-13T01:55:10.766Z,11.77
2022-11-13T02:00:30.878Z,12.65
2022-11-13T02:05:51.599Z,14.75
2022-11-13T02:11:12.740Z,14.32
2022-11-13T02:16:35.897Z,14.23
2022-11-13T02:22:33.774Z,13.25
2022-11-13T02:27:54.077Z,13.88
2022-11-13T02:33:32.228Z,14.98
2022-11-13T02:38:54.256Z,14.07
2022-11-13T02:44:14.566Z,14.80
2022-11-13T02:49:34.902Z,14.30
2022-11-13T02:54:55.335Z,14.82
2022-11-13T03:00:16.166Z,13.55
2022-11-13T03:05:36.459Z,13.98
2022-11-13T03:10:56.552Z,11.85
2022-11-13T03:16:22.002Z,14.23
2022-11-13T03:21:43.224Z,12.98
2022-11-13T03:27:03.421Z,12.00
2022-11-13T03:32:23.718Z,12.82
2022-11-13T03:37:43.576Z,12.75
2022-11-13T03:43:03.750Z,14.05
2022-11-13T03:48:23.912Z,14.63
2022-11-13T03:53:44.133Z,15.45
2022-11-13T03:59:04.447Z,14.75
2022-11-13T04:04:24.797Z,15.27
2022-11-13T04:09:45.059Z,13.55
2022-11-13T04:15:06.024Z,14.43
2022-11-13T04:20:26.645Z,14.30
2022-11-13T04:25:48.868Z,15.82
2022-11-13T04:31:09.131Z,15.63
2022-11-13T04:36:29.224Z,14.35
2022-11-13T04:41:54.122Z,17.25
2022-11-13T04:47:15.357Z,15.90
2022-11-13T04:52:35.581Z,14.77
2022-11-13T04:57:55.765Z,15.25
2022-11-13T05:03:16.042Z,14.13
2022-11-13T05:08:36.406Z,13.95
2022-11-13T05:14:00.692Z,13.45
2022-11-13T05:19:23.209Z,15.00
2022-11-13T05:24:43.370Z,15.00
2022-11-13T05:30:03.940Z,13.73
2022-11-13T05:35:23.867Z,13.15
2022-11-13T05:40:44.115Z,12.82
2022-11-13T05:46:07.938Z,13.23
2022-11-13T05:51:30.852Z,13.15
2022-11-13T05:56:50.870Z,13.90
2022-11-13T06:02:11.256Z,12.68
2022-11-13T06:07:31.381Z,11.57
2022-11-13T06:12:51.092Z,12.77
2022-11-13T06:18:11.504Z,12.30
2022-11-13T06:23:36.682Z,11.02
2022-11-13T06:28:57.375Z,11.55
2022-11-13T06:34:17.527Z,10.35
2022-11-13T06:39:37.839Z,10.88
2022-11-13T06:44:58.288Z,11.60
2022-11-13T06:50:18.616Z,10.55
2022-11-13T06:55:47.532Z,11.10
2022-11-13T07:01:18.145Z,11.48
2022-11-13T07:06:40.540Z,10.52
2022-11-13T07:12:00.614Z,10.35
2022-11-13T07:17:20.664Z,11.85
2022-11-13T07:22:40.652Z,11.00
2022-11-13T07:28:00.717Z,10.68
2022-11-13T07:33:20.713Z,10.77
2022-11-13T07:38:40.693Z,11.40
2022-11-13T07:44:01.900Z,10.38
2022-11-13T07:49:22.785Z,11.00
2022-11-13T07:54:42.960Z,12.68
2022-11-13T08:00:03.790Z,11.75
2022-11-13T08:05:23.988Z,10.07
2022-11-13T08:10:43.885Z,8.35
2022-11-13T08:16:04.440Z,8.10
2022-11-13T08:21:24.912Z,6.78
2022-11-13T08:26:45.211Z,6.13
2022-11-13T08:32:05.823Z,4.70
2022-11-13T08:37:25.962Z,4.40
2022-11-13T08:42:45.926Z,4.40
2022-11-13T08:48:06.475Z,4.22
2022-11-13T08:53:26.618Z,3.95
2022-11-13T08:58:47.068Z,3.30
2022-11-13T09:04:08.297Z,3.53
2022-11-13T09:09:28.153Z,3.58
2022-11-13T09:14:48.287Z,3.70
2022-11-13T09:20:13.525Z,3.40
2022-11-13T09:25:37.789Z,3.05
2022-11-13T09:30:58.273Z,2.65
2022-11-13T09:36:18.453Z,2.60
2022-11-13T09:41:45.204Z,2.75
2022-11-13T09:47:10.283Z,2.72
2022-11-13T09:52:35.917Z,3.13
2022-11-13T09:58:04.958Z,2.65
2022-11-13T10:04:00.631Z,2.60
2022-11-13T10:09:54.351Z,2.95
2022-11-13T10:15:17.371Z,2.08
2022-11-13T10:20:43.347Z,2.58
2022-11-13T10:26:21.105Z,2.00
2022-11-13T10:31:49.660Z,2.80
2022-11-13T10:37:36.306Z,2.17
2022-11-13T10:43:14.521Z,2.65
2022-11-13T10:48:36.680Z,1.92
2022-11-13T10:53:59.015Z,2.03
2022-11-13T10:59:19.908Z,2.33
2022-11-13T11:04:40.222Z,2.60
2022-11-13T11:10:00.518Z,2.20
2022-11-13T11:15:27.419Z,2.40
2022-11-13T11:20:57.797Z,2.22
2022-11-13T11:26:26.754Z,1.88
2022-11-13T11:32:00.951Z,1.92
2022-11-13T11:37:25.175Z,2.40
2022-11-13T11:42:51.713Z,1.60
2022-11-13T11:48:26.010Z,2.30
2022-11-13T11:54:05.060Z,1.77
2022-11-13T11:59:55.429Z,2.13
2022-11-13T12:05:27.249Z,2.38
2022-11-13T12:11:22.096Z,2.10
2022-11-13T12:16:54.154Z,1.65
2022-11-13T12:22:21.342Z,1.90
2022-11-13T12:28:04.545Z,1.63
2022-11-13T12:33:30.811Z,1.58
2022-11-13T12:39:19.746Z,1.98
2022-11-13T12:44:50.195Z,2.10
2022-11-13T12:50:32.475Z,1.92
2022-11-13T12:55:59.296Z,2.60
2022-11-13T13:01:21.769Z,1.77
2022-11-13T13:07:09.034Z,1.73
2022-11-13T13:12:57.165Z,1.83
2022-11-13T13:18:17.568Z,1.90
2022-11-13T13:23:39.939Z,2.05
2022-11-13T13:29:21.384Z,2.47
2022-11-13T13:35:19.350Z,1.95
2022-11-13T13:40:57.695Z,2.25
2022-11-13T13:46:20.189Z,2.00
2022-11-13T13:51:46.449Z,2.15
2022-11-13T14:02:31.585Z,1.60
2022-11-13T14:07:51.465Z,1.80
2022-11-13T14:13:13.555Z,1.45
2022-11-13T14:18:35.151Z,1.55
2022-11-13T14:23:55.273Z,1.77
2022-11-13T14:29:33.546Z,1.35
2022-11-13T14:34:56.628Z,1.70
2022-11-13T14:40:26.811Z,1.65
2022-11-13T14:45:59.337Z,1.90
2022-11-13T14:51:29.403Z,1.95
2022-11-13T14:56:49.463Z,1.98
2022-11-13T15:02:11.519Z,2.13
2022-11-13T15:07:34.088Z,1.80
2022-11-13T15:12:54.426Z,1.50
2022-11-13T15:18:19.732Z,1.98
2022-11-13T15:23:39.626Z,1.80
2022-11-13T15:28:59.631Z,2.50
2022-11-13T15:34:19.799Z,2.70
2022-11-13T15:39:40.140Z,2.47
2022-11-13T15:45:00.283Z,2.55
2022-11-13T15:50:20.576Z,2.42
2022-11-13T15:55:41.697Z,2.35
2022-11-13T16:01:02.019Z,2.70
2022-11-13T16:06:23.783Z,3.47
2022-11-13T16:11:44.156Z,3.22
2022-11-13T16:17:11.709Z,3.00
2022-11-13T16:27:51.837Z,2.85
2022-11-13T16:33:12.576Z,4.43
2022-11-13T16:38:32.487Z,4.63
2022-11-13T16:43:52.347Z,7.28
2022-11-13T16:49:14.182Z,14.20
2022-11-13T16:54:34.119Z,11.80
2022-11-13T16:59:54.357Z,9.75
2022-11-13T17:05:17.960Z,4.68
2022-11-13T17:10:38.210Z,4.32
2022-11-13T17:16:00.814Z,4.10
2022-11-13T17:21:23.563Z,4.07
2022-11-13T17:26:43.788Z,3.85
2022-11-13T17:32:03.758Z,4.00
2022-11-13T17:37:25.358Z,3.75
2022-11-13T17:42:45.400Z,4.03
2022-11-13T17:48:05.572Z,2.95
2022-11-13T17:53:25.887Z,3.50
2022-11-13T17:58:46.755Z,3.38
2022-11-13T18:04:07.179Z,3.40
2022-11-13T18:09:27.577Z,4.28
2022-11-13T18:14:47.910Z,6.72
2022-11-13T18:20:08.628Z,6.45
2022-11-13T18:25:29.218Z,10.60
2022-11-13T18:30:55.076Z,9.35
2022-11-13T18:36:17.052Z,11.05
2022-11-13T18:41:37.265Z,8.25
2022-11-13T18:46:57.449Z,6.85
2022-11-13T18:52:17.784Z,8.80
2022-11-13T18:57:37.993Z,7.13
2022-11-13T19:02:58.063Z,22.45
2022-11-13T19:08:18.385Z,19.08
2022-11-13T19:13:41.058Z,27.42
2022-11-13T19:19:04.276Z,27.10
2022-11-13T19:24:24.570Z,20.13
2022-11-13T19:29:44.577Z,17.95
2022-11-13T19:35:05.042Z,13.10
2022-11-13T19:40:25.274Z,14.27
2022-11-13T19:45:45.318Z,10.32
2022-11-13T19:51:08.565Z,9.50
2022-11-13T19:56:28.896Z,9.55
2022-11-13T20:01:49.306Z,9.57
2022-11-13T20:07:09.541Z,9.77
2022-11-13T20:12:30.678Z,9.77
2022-11-13T20:17:50.873Z,11.48
2022-11-13T20:23:11.137Z,12.68
2022-11-13T20:28:32.383Z,11.73
2022-11-13T20:33:55.470Z,15.02
2022-11-13T20:39:15.565Z,9.80
2022-11-13T20:44:35.506Z,10.30
2022-11-13T20:49:55.457Z,12.05
2022-11-13T20:55:15.893Z,10.75
2022-11-13T21:00:35.984Z,10.85
2022-11-13T21:05:56.128Z,10.88
2022-11-13T21:11:19.046Z,10.65
2022-11-13T21:16:39.185Z,10.90
2022-11-13T21:21:59.146Z,11.75
2022-11-13T21:27:19.571Z,10.15
2022-11-13T21:32:39.895Z,11.55
2022-11-13T21:38:04.376Z,11.63
2022-11-13T21:43:25.027Z,10.68
2022-11-13T21:48:45.751Z,10.90
2022-11-13T21:54:06.945Z,9.02
2022-11-13T21:59:26.959Z,10.30
2022-11-13T22:04:46.945Z,9.73
2022-11-13T22:10:08.691Z,10.45
2022-11-13T22:15:28.893Z,9.20
2022-11-13T22:20:49.319Z,9.65
2022-11-13T22:26:14.867Z,10.32
2022-11-13T22:31:36.123Z,10.75
2022-11-13T22:36:56.108Z,9.98
2022-11-13T22:42:16.010Z,10.32
2022-11-13T22:47:38.132Z,10.38
2022-11-13T22:52:58.461Z,8.63
2022-11-13T22:58:18.401Z,8.57
2022-11-13T23:03:40.540Z,8.70
2022-11-13T23:09:01.103Z,8.63
2022-11-13T23:14:21.447Z,8.05
2022-11-13T23:19:41.376Z,7.72
2022-11-13T23:25:01.649Z,7.40
2022-11-13T23:30:21.439Z,9.35
2022-11-13T23:35:42.225Z,8.35
2022-11-13T23:41:02.614Z,7.35
2022-11-13T23:46:22.909Z,8.55
2022-11-13T23:51:42.899Z,7.85
2022-11-13T23:57:02.990Z,6.93
